sensor_id;sensor_type;location;lat;lon;timestamp;pressure;altitude;pressure_sealevel;temperature;humidity
55424;BME280;41294;42.666;23.350;2022-12-18T00:01:26;95773.94;;;8.45;100.00
55424;BME280;41294;42.666;23.350;2022-12-18T00:03:53;95766.53;;;8.40;100.00
55424;BME280;41294;42.666;23.350;2022-12-18T00:06:20;95780.78;;;8.20;100.00
55424;BME280;41294;42.666;23.350;2022-12-18T00:08:45;95773.31;;;8.18;100.00
55424;BME280;41294;42.666;23.350;2022-12-18T00:11:17;95779.69;;;8.18;100.00
55424;BME280;41294;42.666;23.350;2022-12-18T00:13:43;95776.75;;;8.12;100.00
55424;BME280;41294;42.666;23.350;2022-12-18T00:16:11;95777.59;;;8.06;100.00
55424;BME280;41294;42.666;23.350;2022-12-18T00:18:38;95783.44;;;7.94;100.00
55424;BME280;41294;42.666;23.350;2022-12-18T00:21:06;95790.13;;;7.98;100.00
55424;BME280;41294;42.666;23.350;2022-12-18T00:23:33;95789.59;;;8.07;100.00
55424;BME280;41294;42.666;23.350;2022-12-18T00:26:00;95783.88;;;7.89;100.00
55424;BME280;41294;42.666;23.350;2022-12-18T00:28:25;95800.56;;;7.75;100.00
55424;BME280;41294;42.666;23.350;2022-12-18T00:30:59;95799.13;;;7.71;100.00
55424;BME280;41294;42.666;23.350;2022-12-18T00:33:25;95805.81;;;7.75;100.00
55424;BME280;41294;42.666;23.350;2022-12-18T00:35:50;95799.84;;;7.75;100.00
55424;BME280;41294;42.666;23.350;2022-12-18T00:38:16;95812.47;;;7.80;100.00
55424;BME280;41294;42.666;23.350;2022-12-18T00:40:41;95807.22;;;7.80;100.00
55424;BME280;41294;42.666;23.350;2022-12-18T00:43:06;95812.41;;;7.83;100.00
55424;BME280;41294;42.666;23.350;2022-12-18T00:45:34;95817.38;;;7.78;100.00
55424;BME280;41294;42.666;23.350;2022-12-18T00:48:00;95812.47;;;7.80;100.00
55424;BME280;41294;42.666;23.350;2022-12-18T00:50:25;95811.69;;;7.83;100.00
55424;BME280;41294;42.666;23.350;2022-12-18T00:52:51;95818.13;;;7.78;100.00
55424;BME280;41294;42.666;23.350;2022-12-18T00:55:16;95817.06;;;7.72;100.00
55424;BME280;41294;42.666;23.350;2022-12-18T00:57:42;95823.97;;;7.63;100.00
55424;BME280;41294;42.666;23.350;2022-12-18T01:00:13;95819.13;;;7.61;100.00
55424;BME280;41294;42.666;23.350;2022-12-18T01:02:40;95823.41;;;7.75;100.00
55424;BME280;41294;42.666;23.350;2022-12-18T01:05:06;95828.16;;;7.83;100.00
55424;BME280;41294;42.666;23.350;2022-12-18T01:07:31;95832.41;;;7.74;100.00
55424;BME280;41294;42.666;23.350;2022-12-18T01:09:57;95844.72;;;7.77;100.00
55424;BME280;41294;42.666;23.350;2022-12-18T01:12:22;95850.25;;;7.56;100.00
55424;BME280;41294;42.666;23.350;2022-12-18T01:14:47;95848.16;;;7.44;100.00
55424;BME280;41294;42.666;23.350;2022-12-18T01:17:13;95852.72;;;7.40;100.00
55424;BME280;41294;42.666;23.350;2022-12-18T01:19:38;95851.25;;;7.39;100.00
55424;BME280;41294;42.666;23.350;2022-12-18T01:22:03;95844.66;;;7.28;100.00
55424;BME280;41294;42.666;23.350;2022-12-18T01:24:29;95850.63;;;7.28;100.00
55424;BME280;41294;42.666;23.350;2022-12-18T01:26:54;95850.28;;;7.26;100.00
55424;BME280;41294;42.666;23.350;2022-12-18T01:29:20;95852.34;;;7.08;100.00
55424;BME280;41294;42.666;23.350;2022-12-18T01:31:45;95851.84;;;7.20;100.00
55424;BME280;41294;42.666;23.350;2022-12-18T01:34:10;95856.47;;;7.09;100.00
55424;BME280;41294;42.666;23.350;2022-12-18T01:36:37;95860.56;;;7.10;100.00
55424;BME280;41294;42.666;23.350;2022-12-18T01:39:10;95862.94;;;6.98;100.00
55424;BME280;41294;42.666;23.350;2022-12-18T01:41:36;95862.13;;;7.04;100.00
55424;BME280;41294;42.666;23.350;2022-12-18T01:50:19;95866.78;;;6.90;100.00
55424;BME280;41294;42.666;23.350;2022-12-18T01:52:54;95867.50;;;6.90;100.00
55424;BME280;41294;42.666;23.350;2022-12-18T01:55:23;95868.97;;;6.95;100.00
55424;BME280;41294;42.666;23.350;2022-12-18T01:57:52;95869.81;;;6.85;100.00
55424;BME280;41294;42.666;23.350;2022-12-18T02:00:20;95876.50;;;6.89;100.00
55424;BME280;41294;42.666;23.350;2022-12-18T02:02:47;95872.41;;;6.88;100.00
55424;BME280;41294;42.666;23.350;2022-12-18T02:05:16;95874.31;;;6.84;100.00
55424;BME280;41294;42.666;23.350;2022-12-18T02:07:54;95871.69;;;6.84;100.00
55424;BME280;41294;42.666;23.350;2022-12-18T02:13:08;95878.22;;;6.69;100.00
55424;BME280;41294;42.666;23.350;2022-12-18T02:18:14;95887.84;;;6.79;100.00
55424;BME280;41294;42.666;23.350;2022-12-18T02:20:48;95890.84;;;6.74;100.00
55424;BME280;41294;42.666;23.350;2022-12-18T02:28:41;95897.13;;;6.80;100.00
55424;BME280;41294;42.666;23.350;2022-12-18T02:31:11;95896.34;;;6.87;100.00
55424;BME280;41294;42.666;23.350;2022-12-18T02:33:40;95898.16;;;6.93;100.00
55424;BME280;41294;42.666;23.350;2022-12-18T02:36:07;95898.16;;;6.93;100.00
55424;BME280;41294;42.666;23.350;2022-12-18T02:38:33;95898.22;;;6.86;100.00
55424;BME280;41294;42.666;23.350;2022-12-18T02:41:00;95905.00;;;6.80;100.00
55424;BME280;41294;42.666;23.350;2022-12-18T02:43:26;95905.75;;;6.81;100.00
55424;BME280;41294;42.666;23.350;2022-12-18T02:45:54;95907.19;;;6.85;100.00
55424;BME280;41294;42.666;23.350;2022-12-18T02:48:24;95904.22;;;6.83;100.00
55424;BME280;41294;42.666;23.350;2022-12-18T02:53:51;95907.47;;;6.57;100.00
55424;BME280;41294;42.666;23.350;2022-12-18T02:56:36;95916.78;;;6.58;100.00
55424;BME280;41294;42.666;23.350;2022-12-18T02:59:13;95913.81;;;6.56;100.00
55424;BME280;41294;42.666;23.350;2022-12-18T03:01:51;95913.50;;;6.51;100.00
55424;BME280;41294;42.666;23.350;2022-12-18T03:04:30;95919.53;;;6.41;100.00
55424;BME280;41294;42.666;23.350;2022-12-18T03:06:58;95918.78;;;6.44;100.00
55424;BME280;41294;42.666;23.350;2022-12-18T03:09:32;95927.38;;;6.45;100.00
55424;BME280;41294;42.666;23.350;2022-12-18T03:17:19;95933.00;;;6.40;100.00
55424;BME280;41294;42.666;23.350;2022-12-18T03:19:46;95933.06;;;6.33;100.00
55424;BME280;41294;42.666;23.350;2022-12-18T03:22:13;95941.97;;;6.39;100.00
55424;BME280;41294;42.666;23.350;2022-12-18T03:24:38;95935.94;;;6.49;100.00
55424;BME280;41294;42.666;23.350;2022-12-18T03:27:11;95937.53;;;6.36;100.00
55424;BME280;41294;42.666;23.350;2022-12-18T03:29:43;95942.00;;;6.35;100.00
55424;BME280;41294;42.666;23.350;2022-12-18T03:32:15;95953.25;;;6.29;100.00
55424;BME280;41294;42.666;23.350;2022-12-18T03:34:46;95949.56;;;6.23;100.00
55424;BME280;41294;42.666;23.350;2022-12-18T03:37:13;95948.81;;;6.26;100.00
55424;BME280;41294;42.666;23.350;2022-12-18T03:39:38;95949.19;;;6.24;100.00
55424;BME280;41294;42.666;23.350;2022-12-18T03:42:16;95965.59;;;6.28;100.00
55424;BME280;41294;42.666;23.350;2022-12-18T03:47:22;95963.78;;;6.22;100.00
55424;BME280;41294;42.666;23.350;2022-12-18T03:49:57;95967.56;;;6.14;100.00
55424;BME280;41294;42.666;23.350;2022-12-18T03:52:29;95971.72;;;6.08;100.00
55424;BME280;41294;42.666;23.350;2022-12-18T03:54:58;95981.00;;;6.12;100.00
55424;BME280;41294;42.666;23.350;2022-12-18T03:57:27;95990.69;;;6.15;100.00
55424;BME280;41294;42.666;23.350;2022-12-18T04:00:00;95994.47;;;6.07;100.00
55424;BME280;41294;42.666;23.350;2022-12-18T04:02:28;95999.69;;;6.11;100.00
55424;BME280;41294;42.666;23.350;2022-12-18T04:04:58;95992.28;;;6.02;100.00
55424;BME280;41294;42.666;23.350;2022-12-18T04:07:26;95983.28;;;6.07;100.00
55424;BME280;41294;42.666;23.350;2022-12-18T04:09:56;95993.31;;;6.12;100.00
55424;BME280;41294;42.666;23.350;2022-12-18T04:12:26;95993.31;;;6.12;100.00
55424;BME280;41294;42.666;23.350;2022-12-18T04:14:53;95997.44;;;6.13;100.00
55424;BME280;41294;42.666;23.350;2022-12-18T04:17:19;96004.94;;;6.04;100.00
55424;BME280;41294;42.666;23.350;2022-12-18T04:19:46;96013.88;;;6.06;100.00
55424;BME280;41294;42.666;23.350;2022-12-18T04:22:11;96010.94;;;6.04;99.89
55424;BME280;41294;42.666;23.350;2022-12-18T04:24:36;96020.25;;;6.05;99.29
55424;BME280;41294;42.666;23.350;2022-12-18T04:27:02;96017.66;;;6.05;98.75
55424;BME280;41294;42.666;23.350;2022-12-18T04:29:28;96013.06;;;6.20;98.03
55424;BME280;41294;42.666;23.350;2022-12-18T04:31:53;96017.19;;;6.17;97.56
55424;BME280;41294;42.666;23.350;2022-12-18T04:34:19;96026.97;;;6.10;98.35
55424;BME280;41294;42.666;23.350;2022-12-18T04:36:45;96024.31;;;6.17;97.95
55424;BME280;41294;42.666;23.350;2022-12-18T04:39:10;96027.78;;;5.89;97.35
55424;BME280;41294;42.666;23.350;2022-12-18T04:41:36;96033.72;;;5.97;97.93
55424;BME280;41294;42.666;23.350;2022-12-18T04:44:01;96038.91;;;6.04;97.29
55424;BME280;41294;42.666;23.350;2022-12-18T04:46:26;96044.50;;;6.06;96.70
55424;BME280;41294;42.666;23.350;2022-12-18T04:48:52;96042.97;;;6.15;96.28
55424;BME280;41294;42.666;23.350;2022-12-18T04:51:17;96049.00;;;5.98;95.97
55424;BME280;41294;42.666;23.350;2022-12-18T04:53:43;96053.09;;;6.10;95.83
55424;BME280;41294;42.666;23.350;2022-12-18T04:56:13;96053.88;;;6.00;95.48
55424;BME280;41294;42.666;23.350;2022-12-18T04:58:41;96055.75;;;5.96;94.97
55424;BME280;41294;42.666;23.350;2022-12-18T05:01:06;96061.72;;;5.93;93.58
55424;BME280;41294;42.666;23.350;2022-12-18T05:03:36;96054.28;;;5.88;94.50
55424;BME280;41294;42.666;23.350;2022-12-18T05:06:02;96060.28;;;5.81;93.82
55424;BME280;41294;42.666;23.350;2022-12-18T05:08:28;96066.25;;;5.89;93.75
55424;BME280;41294;42.666;23.350;2022-12-18T05:11:01;96060.28;;;5.85;93.56
55424;BME280;41294;42.666;23.350;2022-12-18T05:13:27;96074.44;;;5.84;93.69
55424;BME280;41294;42.666;23.350;2022-12-18T05:15:53;96070.00;;;5.77;93.95
55424;BME280;41294;42.666;23.350;2022-12-18T05:18:19;96079.69;;;5.77;94.01
55424;BME280;41294;42.666;23.350;2022-12-18T05:20:45;96082.69;;;5.79;94.21
55424;BME280;41294;42.666;23.350;2022-12-18T05:23:10;96090.88;;;5.67;94.25
55424;BME280;41294;42.666;23.350;2022-12-18T05:25:35;96088.28;;;5.74;94.44
55424;BME280;41294;42.666;23.350;2022-12-18T05:28:01;96097.59;;;5.75;93.62
55424;BME280;41294;42.666;23.350;2022-12-18T05:30:26;96098.72;;;5.74;93.36
55424;BME280;41294;42.666;23.350;2022-12-18T05:32:52;96109.53;;;5.79;93.65
55424;BME280;41294;42.666;23.350;2022-12-18T05:35:18;96115.88;;;5.71;93.33
55424;BME280;41294;42.666;23.350;2022-12-18T05:37:43;96106.56;;;5.74;93.48
55424;BME280;41294;42.666;23.350;2022-12-18T05:40:10;96116.25;;;5.84;92.81
55424;BME280;41294;42.666;23.350;2022-12-18T05:42:35;96120.38;;;5.78;92.88
55424;BME280;41294;42.666;23.350;2022-12-18T05:45:01;96118.50;;;5.68;93.64
55424;BME280;41294;42.666;23.350;2022-12-18T05:47:27;96116.28;;;5.63;93.26
55424;BME280;41294;42.666;23.350;2022-12-18T05:49:53;96111.06;;;5.56;93.41
55424;BME280;41294;42.666;23.350;2022-12-18T05:52:19;96113.31;;;5.58;93.64
55424;BME280;41294;42.666;23.350;2022-12-18T05:54:44;96133.09;;;5.45;93.18
55424;BME280;41294;42.666;23.350;2022-12-18T05:57:10;96121.53;;;5.39;93.18
55424;BME280;41294;42.666;23.350;2022-12-18T05:59:35;96132.34;;;5.37;93.07
55424;BME280;41294;42.666;23.350;2022-12-18T06:02:01;96134.22;;;5.37;92.34
55424;BME280;41294;42.666;23.350;2022-12-18T06:04:27;96136.09;;;5.36;93.04
55424;BME280;41294;42.666;23.350;2022-12-18T06:06:55;96125.25;;;5.38;92.76
55424;BME280;41294;42.666;23.350;2022-12-18T06:09:20;96140.94;;;5.34;92.47
55424;BME280;41294;42.666;23.350;2022-12-18T06:11:46;96143.91;;;5.40;92.85
55424;BME280;41294;42.666;23.350;2022-12-18T06:14:11;96142.03;;;5.37;92.02
55424;BME280;41294;42.666;23.350;2022-12-18T06:16:37;96134.97;;;5.44;92.33
55424;BME280;41294;42.666;23.350;2022-12-18T06:19:04;96136.06;;;5.50;92.17
55424;BME280;41294;42.666;23.350;2022-12-18T06:21:31;96145.00;;;5.46;92.32
55424;BME280;41294;42.666;23.350;2022-12-18T06:23:56;96143.53;;;5.27;92.40
55424;BME280;41294;42.666;23.350;2022-12-18T06:26:22;96146.91;;;5.35;93.13
55424;BME280;41294;42.666;23.350;2022-12-18T06:28:47;96147.66;;;5.35;93.26
55424;BME280;41294;42.666;23.350;2022-12-18T06:31:13;96149.13;;;5.36;92.79
55424;BME280;41294;42.666;23.350;2022-12-18T06:33:38;96157.72;;;5.44;92.35
55424;BME280;41294;42.666;23.350;2022-12-18T06:36:07;96155.84;;;5.44;92.79
55424;BME280;41294;42.666;23.350;2022-12-18T06:38:34;96170.00;;;5.50;93.12
55424;BME280;41294;42.666;23.350;2022-12-18T06:41:00;96175.97;;;5.58;92.86
55424;BME280;41294;42.666;23.350;2022-12-18T06:43:25;96182.69;;;5.59;92.08
55424;BME280;41294;42.666;23.350;2022-12-18T06:45:51;96181.19;;;5.61;91.80
55424;BME280;41294;42.666;23.350;2022-12-18T06:48:21;96181.94;;;5.51;92.22
55424;BME280;41294;42.666;23.350;2022-12-18T06:50:46;96188.66;;;5.49;91.89
55424;BME280;41294;42.666;23.350;2022-12-18T06:53:12;96186.44;;;5.47;90.80
55424;BME280;41294;42.666;23.350;2022-12-18T06:55:37;96189.41;;;5.63;90.27
55424;BME280;41294;42.666;23.350;2022-12-18T06:58:02;96186.81;;;5.56;90.44
55424;BME280;41294;42.666;23.350;2022-12-18T07:00:28;96183.06;;;5.64;89.20
55424;BME280;41294;42.666;23.350;2022-12-18T07:02:53;96182.31;;;5.53;89.62
55424;BME280;41294;42.666;23.350;2022-12-18T07:05:19;96192.03;;;5.60;89.33
55424;BME280;41294;42.666;23.350;2022-12-18T07:07:44;96207.31;;;5.61;89.14
55424;BME280;41294;42.666;23.350;2022-12-18T07:10:09;96201.34;;;5.64;89.56
55424;BME280;41294;42.666;23.350;2022-12-18T07:12:35;96203.56;;;5.79;88.04
55424;BME280;41294;42.666;23.350;2022-12-18T07:15:00;96210.69;;;5.82;88.00
55424;BME280;41294;42.666;23.350;2022-12-18T07:17:26;96203.59;;;5.83;87.44
55424;BME280;41294;42.666;23.350;2022-12-18T07:19:51;96204.31;;;5.87;87.77
55424;BME280;41294;42.666;23.350;2022-12-18T07:22:17;96203.22;;;5.88;87.40
55424;BME280;41294;42.666;23.350;2022-12-18T07:24:42;96210.69;;;5.79;88.37
55424;BME280;41294;42.666;23.350;2022-12-18T07:27:07;96205.47;;;5.79;88.78
55424;BME280;41294;42.666;23.350;2022-12-18T07:29:33;96208.06;;;5.79;88.82
55424;BME280;41294;42.666;23.350;2022-12-18T07:31:58;96213.25;;;5.93;87.64
55424;BME280;41294;42.666;23.350;2022-12-18T07:34:23;96214.41;;;5.71;87.70
55424;BME280;41294;42.666;23.350;2022-12-18T07:36:49;96220.75;;;5.77;87.28
55424;BME280;41294;42.666;23.350;2022-12-18T07:39:14;96224.09;;;5.91;88.57
55424;BME280;41294;42.666;23.350;2022-12-18T07:41:40;96215.53;;;5.87;87.74
55424;BME280;41294;42.666;23.350;2022-12-18T07:44:12;96237.53;;;5.93;87.28
55424;BME280;41294;42.666;23.350;2022-12-18T07:46:38;96233.41;;;5.99;86.96
55424;BME280;41294;42.666;23.350;2022-12-18T07:49:04;96239.41;;;5.93;86.52
55424;BME280;41294;42.666;23.350;2022-12-18T07:51:29;96242.03;;;5.86;86.73
55424;BME280;41294;42.666;23.350;2022-12-18T07:53:55;96235.69;;;5.80;87.17
55424;BME280;41294;42.666;23.350;2022-12-18T07:56:20;96225.97;;;5.70;87.55
55424;BME280;41294;42.666;23.350;2022-12-18T07:58:46;96241.63;;;5.70;87.39
55424;BME280;41294;42.666;23.350;2022-12-18T08:01:12;96243.50;;;5.69;88.52
55424;BME280;41294;42.666;23.350;2022-12-18T08:03:39;96256.56;;;5.73;88.30
55424;BME280;41294;42.666;23.350;2022-12-18T08:06:06;96259.56;;;5.82;88.05
55424;BME280;41294;42.666;23.350;2022-12-18T08:08:33;96255.84;;;5.83;87.50
55424;BME280;41294;42.666;23.350;2022-12-18T08:10:59;96265.53;;;5.79;88.00
55424;BME280;41294;42.666;23.350;2022-12-18T08:13:25;96266.25;;;5.69;88.28
55424;BME280;41294;42.666;23.350;2022-12-18T08:16:04;96275.97;;;5.65;88.54
55424;BME280;41294;42.666;23.350;2022-12-18T08:18:32;96283.78;;;5.58;88.99
55424;BME280;41294;42.666;23.350;2022-12-18T08:20:57;96288.59;;;5.46;89.18
55424;BME280;41294;42.666;23.350;2022-12-18T08:23:23;96292.72;;;5.40;88.18
55424;BME280;41294;42.666;23.350;2022-12-18T08:25:48;96291.59;;;5.41;88.27
55424;BME280;41294;42.666;23.350;2022-12-18T08:28:15;96291.22;;;5.49;88.00
55424;BME280;41294;42.666;23.350;2022-12-18T08:30:43;96297.59;;;5.48;87.54
55424;BME280;41294;42.666;23.350;2022-12-18T08:33:08;96303.56;;;5.63;88.16
55424;BME280;41294;42.666;23.350;2022-12-18T08:35:37;96304.31;;;5.67;87.69
55424;BME280;41294;42.666;23.350;2022-12-18T08:38:03;96299.44;;;5.58;87.60
55424;BME280;41294;42.666;23.350;2022-12-18T08:40:28;96297.97;;;5.57;86.69
55424;BME280;41294;42.666;23.350;2022-12-18T08:42:54;96293.09;;;5.56;87.40
55424;BME280;41294;42.666;23.350;2022-12-18T08:45:38;96305.78;;;5.54;87.27
55424;BME280;41294;42.666;23.350;2022-12-18T08:48:03;96303.91;;;5.47;87.00
55424;BME280;41294;42.666;23.350;2022-12-18T08:50:29;96300.59;;;5.61;86.94
55424;BME280;41294;42.666;23.350;2022-12-18T08:52:54;96309.53;;;5.60;86.29
55424;BME280;41294;42.666;23.350;2022-12-18T08:55:20;96317.72;;;5.58;87.01
55424;BME280;41294;42.666;23.350;2022-12-18T08:57:48;96305.03;;;5.67;85.85
55424;BME280;41294;42.666;23.350;2022-12-18T09:00:14;96305.44;;;5.76;85.47
55424;BME280;41294;42.666;23.350;2022-12-18T09:02:40;96306.19;;;5.73;84.34
55424;BME280;41294;42.666;23.350;2022-12-18T09:05:06;96309.53;;;5.63;83.85
55424;BME280;41294;42.666;23.350;2022-12-18T09:07:31;96311.75;;;5.61;84.11
55424;BME280;41294;42.666;23.350;2022-12-18T09:09:56;96304.66;;;5.62;83.20
55424;BME280;41294;42.666;23.350;2022-12-18T09:12:22;96300.94;;;5.59;82.99
55424;BME280;41294;42.666;23.350;2022-12-18T09:14:47;96298.31;;;5.59;83.91
55424;BME280;41294;42.666;23.350;2022-12-18T09:17:13;96299.09;;;5.70;83.94
55424;BME280;41294;42.666;23.350;2022-12-18T09:19:38;96296.16;;;5.78;83.02
55424;BME280;41294;42.666;23.350;2022-12-18T09:22:03;96296.09;;;5.75;83.39
55424;BME280;41294;42.666;23.350;2022-12-18T09:24:29;96302.09;;;5.93;82.82
55424;BME280;41294;42.666;23.350;2022-12-18T09:26:54;96304.34;;;5.98;83.55
55424;BME280;41294;42.666;23.350;2022-12-18T09:29:20;96294.63;;;5.95;82.48
55424;BME280;41294;42.666;23.350;2022-12-18T09:31:45;96294.66;;;6.05;81.79
55424;BME280;41294;42.666;23.350;2022-12-18T09:34:11;96293.88;;;6.08;81.66
55424;BME280;41294;42.666;23.350;2022-12-18T09:36:36;96306.56;;;6.31;83.29
55424;BME280;41294;42.666;23.350;2022-12-18T09:39:02;96303.22;;;6.13;80.26
55424;BME280;41294;42.666;23.350;2022-12-18T09:41:51;96302.13;;;5.96;80.25
55424;BME280;41294;42.666;23.350;2022-12-18T09:44:30;96309.97;;;6.00;78.95
55424;BME280;41294;42.666;23.350;2022-12-18T09:47:23;96308.09;;;5.83;80.36
55424;BME280;41294;42.666;23.350;2022-12-18T09:49:54;96298.34;;;5.69;80.98
55424;BME280;41294;42.666;23.350;2022-12-18T09:52:44;96305.09;;;5.98;80.12
55424;BME280;41294;42.666;23.350;2022-12-18T09:55:28;96305.09;;;5.88;79.88
55424;BME280;41294;42.666;23.350;2022-12-18T09:57:58;96299.13;;;6.12;79.40
55424;BME280;41294;42.666;23.350;2022-12-18T10:00:26;96293.88;;;6.08;79.14
55424;BME280;41294;42.666;23.350;2022-12-18T10:02:53;96304.34;;;6.22;78.66
55424;BME280;41294;42.666;23.350;2022-12-18T10:10:50;96289.78;;;6.21;78.24
55424;BME280;41294;42.666;23.350;2022-12-18T10:16:17;96294.22;;;6.45;76.60
55424;BME280;41294;42.666;23.350;2022-12-18T10:19:22;96305.41;;;6.42;75.94
55424;BME280;41294;42.666;23.350;2022-12-18T10:22:16;96305.06;;;6.44;76.80
55424;BME280;41294;42.666;23.350;2022-12-18T10:25:10;96302.06;;;6.45;76.29
55424;BME280;41294;42.666;23.350;2022-12-18T10:27:40;96300.53;;;6.54;75.68
55424;BME280;41294;42.666;23.350;2022-12-18T10:30:14;96315.88;;;6.46;76.34
55424;BME280;41294;42.666;23.350;2022-12-18T10:32:41;96305.06;;;6.44;75.75
55424;BME280;41294;42.666;23.350;2022-12-18T10:35:25;96295.34;;;6.41;75.85
55424;BME280;41294;42.666;23.350;2022-12-18T10:38:07;96291.22;;;6.47;76.35
55424;BME280;41294;42.666;23.350;2022-12-18T10:41:00;96296.78;;;6.55;76.60
55424;BME280;41294;42.666;23.350;2022-12-18T10:46:00;96304.28;;;6.47;77.27
55424;BME280;41294;42.666;23.350;2022-12-18T10:48:26;96295.31;;;6.51;77.13
55424;BME280;41294;42.666;23.350;2022-12-18T10:50:53;96293.09;;;6.46;77.11
55424;BME280;41294;42.666;23.350;2022-12-18T10:53:24;96298.28;;;6.56;77.38
55424;BME280;41294;42.666;23.350;2022-12-18T10:55:52;96296.44;;;6.53;77.22
55424;BME280;41294;42.666;23.350;2022-12-18T10:58:37;96296.00;;;6.69;77.10
55424;BME280;41294;42.666;23.350;2022-12-18T11:03:46;96296.00;;;6.72;75.97
55424;BME280;41294;42.666;23.350;2022-12-18T11:06:17;96284.03;;;6.82;75.03
55424;BME280;41294;42.666;23.350;2022-12-18T11:08:46;96295.22;;;6.82;75.23
55424;BME280;41294;42.666;23.350;2022-12-18T11:11:23;96297.84;;;6.82;74.87
55424;BME280;41294;42.666;23.350;2022-12-18T11:14:13;96292.25;;;6.77;75.37
55424;BME280;41294;42.666;23.350;2022-12-18T11:16:46;96294.13;;;6.80;72.96
55424;BME280;41294;42.666;23.350;2022-12-18T11:19:34;96293.06;;;6.60;72.56
55424;BME280;41294;42.666;23.350;2022-12-18T11:22:18;96296.06;;;6.52;72.31
55424;BME280;41294;42.666;23.350;2022-12-18T11:24:53;96305.03;;;6.57;72.15
55424;BME280;41294;42.666;23.350;2022-12-18T11:27:20;96290.75;;;6.79;72.75
55424;BME280;41294;42.666;23.350;2022-12-18T11:29:49;96284.75;;;6.82;72.38
55424;BME280;41294;42.666;23.350;2022-12-18T11:34:55;96290.81;;;6.58;73.59
55424;BME280;41294;42.666;23.350;2022-12-18T11:37:24;96295.63;;;6.77;73.46
55424;BME280;41294;42.666;23.350;2022-12-18T11:40:01;96299.00;;;6.67;73.15
55424;BME280;41294;42.666;23.350;2022-12-18T11:45:08;96302.00;;;6.69;72.79
55424;BME280;41294;42.666;23.350;2022-12-18T11:48:03;96298.59;;;6.83;73.41
55424;BME280;41294;42.666;23.350;2022-12-18T11:50:38;96304.94;;;6.89;73.44
55424;BME280;41294;42.666;23.350;2022-12-18T11:53:10;96301.91;;;6.90;73.37
55424;BME280;41294;42.666;23.350;2022-12-18T12:18:33;96288.53;;;6.74;72.87
55424;BME280;41294;42.666;23.350;2022-12-18T12:21:08;96293.38;;;6.83;72.40
55424;BME280;41294;42.666;23.350;2022-12-18T12:40:14;96315.06;;;6.76;72.94
55424;BME280;41294;42.666;23.350;2022-12-18T12:42:48;96303.44;;;6.84;72.67
55424;BME280;41294;42.666;23.350;2022-12-18T12:45:47;96303.06;;;6.82;73.34
55424;BME280;41294;42.666;23.350;2022-12-18T12:53:39;96307.56;;;6.82;73.01
55424;BME280;41294;42.666;23.350;2022-12-18T12:56:05;96307.91;;;6.94;73.33
55424;BME280;41294;42.666;23.350;2022-12-18T12:58:39;96313.94;;;6.74;74.25
55424;BME280;41294;42.666;23.350;2022-12-18T13:04:53;96319.09;;;6.98;73.72
55424;BME280;41294;42.666;23.350;2022-12-18T13:07:11;96325.50;;;6.87;73.30
55424;BME280;41294;42.666;23.350;2022-12-18T13:13:01;96330.00;;;6.79;73.76
55424;BME280;41294;42.666;23.350;2022-12-18T13:15:43;96341.94;;;6.80;73.39
55424;BME280;41294;42.666;23.350;2022-12-18T13:25:53;96340.88;;;6.67;74.16
55424;BME280;41294;42.666;23.350;2022-12-18T13:31:06;96350.59;;;6.63;73.53
55424;BME280;41294;42.666;23.350;2022-12-18T13:36:09;96357.31;;;6.64;73.82
55424;BME280;41294;42.666;23.350;2022-12-18T13:38:38;96359.19;;;6.64;73.92
55424;BME280;41294;42.666;23.350;2022-12-18T13:41:23;96350.25;;;6.61;74.73
55424;BME280;41294;42.666;23.350;2022-12-18T13:43:50;96344.66;;;6.49;75.17
55424;BME280;41294;42.666;23.350;2022-12-18T13:48:57;96365.94;;;6.61;74.65
55424;BME280;41294;42.666;23.350;2022-12-18T13:51:25;96369.28;;;6.58;74.37
55424;BME280;41294;42.666;23.350;2022-12-18T13:53:54;96368.94;;;6.46;74.74
55424;BME280;41294;42.666;23.350;2022-12-18T13:56:25;96371.56;;;6.43;75.24
55424;BME280;41294;42.666;23.350;2022-12-18T13:59:18;96371.16;;;6.48;75.19
55424;BME280;41294;42.666;23.350;2022-12-18T14:04:40;96382.75;;;6.53;75.84
55424;BME280;41294;42.666;23.350;2022-12-18T14:07:14;96389.47;;;6.61;74.84
55424;BME280;41294;42.666;23.350;2022-12-18T14:09:45;96380.47;;;6.62;74.90
55424;BME280;41294;42.666;23.350;2022-12-18T14:12:24;96383.47;;;6.71;74.16
55424;BME280;41294;42.666;23.350;2022-12-18T14:17:52;96392.06;;;6.75;73.34
55424;BME280;41294;42.666;23.350;2022-12-18T14:20:18;96389.81;;;6.67;72.95
55424;BME280;41294;42.666;23.350;2022-12-18T14:22:45;96394.69;;;6.54;72.71
55424;BME280;41294;42.666;23.350;2022-12-18T14:25:25;96392.84;;;6.52;73.24
55424;BME280;41294;42.666;23.350;2022-12-18T14:27:52;96391.72;;;6.59;71.30
55424;BME280;41294;42.666;23.350;2022-12-18T14:33:26;96387.25;;;6.46;71.69
55424;BME280;41294;42.666;23.350;2022-12-18T14:41:04;96395.44;;;6.34;71.29
55424;BME280;41294;42.666;23.350;2022-12-18T14:43:36;96393.59;;;6.24;72.00
55424;BME280;41294;42.666;23.350;2022-12-18T14:46:03;96392.84;;;6.38;71.26
55424;BME280;41294;42.666;23.350;2022-12-18T14:48:38;96389.13;;;6.21;70.96
55424;BME280;41294;42.666;23.350;2022-12-18T14:51:05;96392.47;;;6.29;77.96
55424;BME280;41294;42.666;23.350;2022-12-18T14:53:41;96396.19;;;6.24;73.41
55424;BME280;41294;42.666;23.350;2022-12-18T14:59:14;96401.44;;;6.42;70.20
55424;BME280;41294;42.666;23.350;2022-12-18T15:04:39;96402.56;;;6.27;70.40
55424;BME280;41294;42.666;23.350;2022-12-18T15:07:18;96405.19;;;6.27;69.95
55424;BME280;41294;42.666;23.350;2022-12-18T15:12:44;96402.91;;;6.32;69.54
55424;BME280;41294;42.666;23.350;2022-12-18T15:20:54;96405.19;;;6.30;68.25
55424;BME280;41294;42.666;23.350;2022-12-18T15:23:23;96400.31;;;6.08;68.45
55424;BME280;41294;42.666;23.350;2022-12-18T15:26:05;96411.88;;;6.21;68.37
55424;BME280;41294;42.666;23.350;2022-12-18T15:28:38;96422.72;;;6.16;68.20
55424;BME280;41294;42.666;23.350;2022-12-18T15:34:00;96418.59;;;6.15;68.25